Terminal Aerodrome Forecast
Issued by NWS

Home | Current Version | Previous Version | Text Only | Print | Product List | Glossary Off
Versions: 1 2 3 4 5 6 7 8 9 10 11 12 13

000
FTUS43 KMPX 130500
TAFAXN
TAF
KAXN 130521Z 1306/1406 22005KT P6SM SKC
     FM131600 19015G22KT P6SM SCT200
     FM140000 18010KT P6SM FEW200=

USA.gov is the U.S. government's official web portal to all federal, state and local government web resources and services.